Time;durP1;ratioP1;P1;durP2;ratioP2;P2;SDS_P1;SDS_P2;PMS_P1;PMS_P2;Temp;Humidity;BMP_temperature;BMP_pressure;BME280_temperature;BME280_humidity;BME280_pressure;Samples;Min_cycle;Max_cycle;Signal;HPM_P1;HPM_P2
2021/05/07 00:01:12;;;;;;;3.70;2.07;;;;;;;2.47;83.76;99777.34;5039187;28;20451;-81
2021/05/07 00:03:39;;;;;;;2.50;2.00;;;;;;;2.38;83.87;99776.50;5037834;28;20692;-81
2021/05/07 00:06:07;;;;;;;3.20;2.37;;;;;;;2.30;84.32;99775.66;5021853;28;20040;-81
2021/05/07 00:08:41;;;;;;;3.50;2.20;;;;;;;2.25;84.44;99778.25;5038103;28;20044;-81
2021/05/07 00:11:19;;;;;;;3.33;2.17;;;;;;;2.20;84.24;99773.06;5013970;28;20040;-82
2021/05/07 00:13:47;;;;;;;3.17;1.90;;;;;;;2.09;84.34;99782.59;5026116;28;20432;-81
2021/05/07 00:16:13;;;;;;;4.80;2.23;;;;;;;2.08;84.65;99780.00;5022375;28;20501;-81
2021/05/07 00:18:39;;;;;;;2.37;1.90;;;;;;;1.98;85.08;99781.75;5035963;28;20559;-81
2021/05/07 00:21:08;;;;;;;2.63;2.10;;;;;;;1.86;85.29;99780.00;5034669;28;20095;-81
2021/05/07 00:23:35;;;;;;;3.50;2.30;;;;;;;1.87;85.29;99778.28;5039166;28;20032;-80
2021/05/07 00:26:01;;;;;;;2.87;2.27;;;;;;;1.81;85.72;99780.88;5019813;28;20045;-82
2021/05/07 00:28:28;;;;;;;3.30;2.07;;;;;;;1.78;86.04;99776.53;5038446;28;20044;-81
2021/05/07 00:30:54;;;;;;;3.30;2.27;;;;;;;1.74;86.08;99785.19;5056241;28;20052;-81
2021/05/07 00:33:20;;;;;;;2.53;2.20;;;;;;;1.74;86.30;99774.78;5056738;28;20094;-81
2021/05/07 00:35:46;;;;;;;3.00;2.00;;;;;;;1.72;86.14;99780.84;5039726;28;20509;-81
2021/05/07 00:38:14;;;;;;;5.93;2.73;;;;;;;1.65;87.15;99777.38;5056185;28;20044;-83
2021/05/07 00:40:40;;;;;;;3.87;2.57;;;;;;;1.64;87.53;99776.50;5038756;28;20067;-82
2021/05/07 00:43:07;;;;;;;3.27;2.10;;;;;;;1.72;88.49;99773.06;5039033;28;20043;-81
2021/05/07 00:45:33;;;;;;;3.17;2.37;;;;;;;1.71;88.40;99769.56;5039502;28;20048;-82
2021/05/07 00:48:06;;;;;;;3.23;2.43;;;;;;;1.71;88.93;99774.78;5050324;28;20094;-81
2021/05/07 00:50:34;;;;;;;3.67;2.53;;;;;;;1.68;89.09;99778.28;5039432;28;20037;-81
2021/05/07 00:53:02;;;;;;;3.20;2.40;;;;;;;1.64;90.14;99771.31;5055727;28;20052;-82
2021/05/07 00:55:30;;;;;;;3.40;2.43;;;;;;;1.66;90.11;99773.91;5038582;28;20098;-80
2021/05/07 00:57:56;;;;;;;3.30;2.20;;;;;;;1.74;89.82;99763.50;5037734;28;20049;-83
2021/05/07 01:00:25;;;;;;;3.63;2.07;;;;;;;1.77;89.48;99773.94;5037638;28;20037;-81
2021/05/07 01:02:51;;;;;;;3.17;2.10;;;;;;;1.82;89.16;99761.75;5037338;28;20137;-81
2021/05/07 01:05:18;;;;;;;5.10;2.30;;;;;;;1.77;89.75;99758.31;5054126;28;20044;-82
2021/05/07 01:07:44;;;;;;;4.70;2.10;;;;;;;1.64;90.65;99765.22;5071963;28;20049;-81
2021/05/07 01:10:12;;;;;;;3.03;2.47;;;;;;;1.56;91.20;99759.13;5021304;28;20028;-83
2021/05/07 01:12:39;;;;;;;4.53;3.13;;;;;;;1.63;90.87;99753.09;5021262;28;20613;-83
2021/05/07 01:15:14;;;;;;;6.67;3.10;;;;;;;1.64;89.41;99757.41;5040286;28;20075;-81
2021/05/07 01:17:43;;;;;;;3.00;2.15;;;;;;;1.59;89.78;99760.00;5054268;28;20041;-81
2021/05/07 01:20:15;;;;;;;2.93;1.90;;;;;;;1.54;89.71;99751.34;5020165;28;20469;-80
2021/05/07 01:22:43;;;;;;;2.67;2.00;;;;;;;1.53;89.83;99753.94;5054802;28;20541;-81
2021/05/07 01:25:11;;;;;;;3.77;2.33;;;;;;;1.47;90.21;99756.53;5053826;28;20122;-81
2021/05/07 01:27:39;;;;;;;5.00;2.23;;;;;;;1.48;90.17;99758.25;5034654;28;20044;-81
2021/05/07 01:30:18;;;;;;;3.27;2.10;;;;;;;1.43;89.85;99753.06;5037569;28;20044;-81
2021/05/07 01:32:46;;;;;;;3.33;2.27;;;;;;;1.44;89.76;99751.31;5030145;28;20630;-82
2021/05/07 01:35:15;;;;;;;2.77;1.90;;;;;;;1.32;90.28;99747.81;5027114;28;20099;-80
2021/05/07 01:37:43;;;;;;;2.77;2.20;;;;;;;1.36;90.68;99752.19;5032910;28;20114;-82
2021/05/07 01:40:17;;;;;;;4.77;2.17;;;;;;;1.38;90.79;99747.84;5022254;28;20616;-83
2021/05/07 01:42:46;;;;;;;4.47;2.80;;;;;;;1.36;91.56;99756.50;5036867;28;20051;-81
2021/05/07 01:45:13;;;;;;;3.97;2.80;;;;;;;1.33;91.95;99756.47;5020638;28;20040;-82
2021/05/07 01:47:39;;;;;;;3.10;2.57;;;;;;;1.31;92.17;99753.88;5033571;28;20896;-81
2021/05/07 01:50:07;;;;;;;3.30;2.60;;;;;;;1.37;92.54;99759.13;5066960;28;20107;-83
2021/05/07 01:52:34;;;;;;;3.27;2.47;;;;;;;1.39;92.81;99751.31;5053472;28;20033;-81
2021/05/07 01:55:02;;;;;;;4.50;2.60;;;;;;;1.35;93.03;99754.78;5020030;28;20044;-81
2021/05/07 01:57:33;;;;;;;4.77;2.73;;;;;;;1.33;93.52;99749.53;5020805;28;20444;-80
2021/05/07 02:00:00;;;;;;;4.83;2.50;;;;;;;1.38;92.89;99755.66;5064271;28;20044;-80
2021/05/07 02:02:26;;;;;;;4.17;2.27;;;;;;;1.40;92.82;99756.50;5037798;28;20053;-83
2021/05/07 02:04:53;;;;;;;4.40;2.63;;;;;;;1.47;92.58;99751.31;5035240;28;20047;-81
2021/05/07 02:07:19;;;;;;;3.67;2.27;;;;;;;1.52;91.86;99747.88;5061274;28;20040;-81
2021/05/07 02:09:45;;;;;;;4.87;2.17;;;;;;;1.53;91.43;99752.22;5040613;28;20079;-80
2021/05/07 02:12:11;;;;;;;3.40;2.50;;;;;;;1.50;91.42;99751.31;5037270;28;20044;-80
2021/05/07 02:14:38;;;;;;;3.03;2.43;;;;;;;1.49;91.43;99746.97;5068454;28;20047;-81
2021/05/07 02:17:04;;;;;;;2.53;2.00;;;;;;;1.42;91.97;99749.56;5035847;28;20096;-81
2021/05/07 02:19:31;;;;;;;3.27;2.50;;;;;;;1.39;92.37;99752.16;5052127;28;20047;-81
2021/05/07 02:21:57;;;;;;;3.40;2.20;;;;;;;1.39;92.63;99749.56;5036229;28;20033;-81
2021/05/07 02:24:24;;;;;;;4.97;2.40;;;;;;;1.37;93.01;99753.03;5036082;28;20047;-81
2021/05/07 02:26:50;;;;;;;3.70;2.43;;;;;;;1.38;92.93;99750.44;5019500;28;20040;-81
2021/05/07 02:29:17;;;;;;;3.90;2.17;;;;;;;1.45;92.58;99745.25;5035031;28;20090;-81
2021/05/07 02:31:44;;;;;;;3.43;2.60;;;;;;;1.49;92.09;99747.84;5052544;28;20036;-81
2021/05/07 02:34:13;;;;;;;3.67;2.40;;;;;;;1.46;92.48;99741.78;5052485;28;20040;-81
2021/05/07 02:36:40;;;;;;;2.60;2.20;;;;;;;1.39;93.30;99741.75;5065406;28;20032;-81
2021/05/07 02:39:07;;;;;;;3.67;2.97;;;;;;;1.37;93.58;99738.28;5035995;28;20521;-85
2021/05/07 02:41:36;;;;;;;3.20;2.40;;;;;;;1.39;93.25;99743.50;5036473;28;20041;-81
2021/05/07 02:44:06;;;;;;;3.03;2.23;;;;;;;1.37;93.43;99750.44;5020665;28;20044;-80
2021/05/07 02:46:33;;;;;;;3.90;3.17;;;;;;;1.10;94.39;99743.44;5053451;28;20115;-80
2021/05/07 02:49:06;;;;;;;2.80;2.57;;;;;;;1.12;95.56;99729.56;5037570;28;20440;-80
2021/05/07 02:51:33;;;;;;;4.13;2.77;;;;;;;1.30;94.46;99741.75;5068632;28;20074;-80
2021/05/07 02:54:00;;;;;;;2.60;2.30;;;;;;;1.26;93.77;99744.31;5034684;28;20049;-80
2021/05/07 02:56:26;;;;;;;2.63;2.20;;;;;;;1.22;94.47;99740.84;5035877;28;20040;-81
2021/05/07 02:58:53;;;;;;;3.53;2.47;;;;;;;1.19;94.71;99738.25;5019737;28;20044;-81
2021/05/07 03:01:19;;;;;;;5.20;2.87;;;;;;;1.12;93.28;99734.75;5035165;28;20727;-81
2021/05/07 03:03:45;;;;;;;4.33;3.27;;;;;;;1.15;94.14;99749.50;5036048;28;20052;-84
2021/05/07 03:06:12;;;;;;;3.20;2.70;;;;;;;0.99;94.53;99743.38;5019718;28;20110;-81
2021/05/07 03:08:38;;;;;;;4.00;2.83;;;;;;;1.13;93.48;99739.09;5036040;28;20036;-81
2021/05/07 03:11:05;;;;;;;4.53;2.50;;;;;;;1.16;92.95;99742.56;5036106;28;20448;-80
2021/05/07 03:13:31;;;;;;;5.60;3.30;;;;;;;1.00;93.32;99749.44;5033265;28;20045;-80
2021/05/07 03:15:57;;;;;;;3.93;3.00;;;;;;;0.98;93.87;99745.97;5041133;28;20056;-81
2021/05/07 03:18:24;;;;;;;4.80;2.97;;;;;;;0.87;94.51;99747.69;5040190;28;20098;-82
2021/05/07 03:20:51;;;;;;;5.30;3.20;;;;;;;0.93;93.57;99751.19;5101923;23;20189;-80
2021/05/07 03:23:18;;;;;;;6.27;3.33;;;;;;;0.90;94.14;99745.94;5001132;28;20566;-80
2021/05/07 03:25:45;;;;;;;5.33;3.03;;;;;;;0.85;93.68;99752.88;5007222;28;20034;-83
2021/05/07 03:28:12;;;;;;;4.40;3.10;;;;;;;0.76;94.24;99753.72;5016491;28;20448;-84
2021/05/07 03:30:38;;;;;;;4.80;3.80;;;;;;;0.60;95.86;99761.44;5021355;28;20405;-82
2021/05/07 03:33:05;;;;;;;5.03;3.97;;;;;;;0.68;95.79;99762.34;5005106;28;20049;-82
2021/05/07 03:35:33;;;;;;;5.67;3.93;;;;;;;0.69;94.55;99761.47;5021548;28;20465;-84
2021/05/07 03:38:00;;;;;;;4.60;4.00;;;;;;;0.66;94.38;99771.84;5021069;28;20048;-83
2021/05/07 03:40:26;;;;;;;5.10;3.70;;;;;;;0.71;94.00;99767.53;4999902;28;20072;-81
2021/05/07 03:42:53;;;;;;;4.70;3.80;;;;;;;0.65;94.72;99767.50;5036925;28;20460;-83
2021/05/07 03:45:19;;;;;;;5.10;4.40;;;;;;;0.70;95.03;99766.69;5011770;28;20531;-83
2021/05/07 03:47:45;;;;;;;6.43;4.23;;;;;;;0.68;94.74;99767.53;5037748;28;20056;-83
2021/05/07 03:50:12;;;;;;;5.07;4.10;;;;;;;0.70;95.41;99776.22;5019086;28;20037;-83
2021/05/07 03:52:40;;;;;;;5.67;3.67;;;;;;;0.72;95.20;99764.94;5019487;28;20094;-84
2021/05/07 03:55:11;;;;;;;4.53;3.53;;;;;;;0.86;95.08;99775.41;5021719;28;20044;-83
2021/05/07 03:57:38;;;;;;;4.27;3.07;;;;;;;0.92;95.39;99770.22;5038362;28;20045;-82
2021/05/07 04:00:05;;;;;;;6.70;3.47;;;;;;;0.98;95.34;99769.38;5035912;28;20041;-82
2021/05/07 04:02:31;;;;;;;3.80;3.23;;;;;;;1.04;95.69;99778.09;5021682;28;20580;-82
2021/05/07 04:04:58;;;;;;;4.23;3.63;;;;;;;1.04;95.34;99774.63;5005522;28;20041;-81
2021/05/07 04:07:26;;;;;;;4.73;3.50;;;;;;;1.02;95.58;99778.97;5053523;28;20037;-83
2021/05/07 04:09:58;;;;;;;4.20;3.33;;;;;;;1.19;95.45;99776.41;5004744;28;20041;-84
2021/05/07 04:14:56;;;;;;;3.13;2.80;;;;;;;1.30;95.84;99780.78;5022172;28;20051;-84
2021/05/07 04:17:23;;;;;;;3.40;3.00;;;;;;;1.46;95.52;99789.50;5022015;28;20391;-83
2021/05/07 04:19:49;;;;;;;3.60;3.03;;;;;;;1.54;94.32;99789.50;5037171;28;20509;-84
2021/05/07 04:22:15;;;;;;;4.73;3.20;;;;;;;1.61;94.92;99791.28;5008015;28;20056;-83
2021/05/07 04:24:43;;;;;;;3.70;2.70;;;;;;;1.77;95.13;99786.97;5051950;28;20052;-82
2021/05/07 04:27:13;;;;;;;5.47;3.03;;;;;;;1.84;93.72;99797.34;5018009;28;20056;-82
2021/05/07 04:29:41;;;;;;;4.43;3.20;;;;;;;1.89;93.75;99793.03;5050614;28;20037;-82
2021/05/07 04:32:07;;;;;;;4.07;2.97;;;;;;;1.92;94.12;99792.16;4999119;28;20053;-82
2021/05/07 04:34:36;;;;;;;4.40;3.00;;;;;;;1.92;94.42;99800.84;5004264;28;20530;-81
2021/05/07 04:37:02;;;;;;;4.07;3.20;;;;;;;2.14;94.08;99801.72;5019199;28;20049;-81
2021/05/07 04:39:28;;;;;;;3.43;2.77;;;;;;;2.20;93.80;99799.13;5035537;28;20072;-81
2021/05/07 04:41:54;;;;;;;3.43;2.93;;;;;;;2.29;94.00;99807.81;5016751;28;20094;-80
2021/05/07 04:44:20;;;;;;;5.63;3.30;;;;;;;2.30;94.83;99802.59;5010197;28;20041;-82
2021/05/07 04:46:47;;;;;;;5.57;3.20;;;;;;;2.32;95.77;99800.84;5034835;28;20110;-81
2021/05/07 04:49:13;;;;;;;5.13;3.17;;;;;;;2.41;95.65;99802.56;5018782;28;20731;-81
2021/05/07 04:51:39;;;;;;;5.57;4.60;;;;;;;2.43;96.25;99806.88;5034786;28;20103;-80
2021/05/07 04:54:06;;;;;;;4.40;3.47;;;;;;;2.53;96.08;99811.25;5018728;28;20114;-81
2021/05/07 04:56:32;;;;;;;5.23;3.03;;;;;;;2.59;96.33;99807.75;5018067;28;20036;-81
2021/05/07 04:58:59;;;;;;;5.73;3.80;;;;;;;2.63;96.95;99809.50;5001898;28;20414;-81
2021/05/07 05:01:25;;;;;;;5.23;3.27;;;;;;;2.76;97.71;99824.22;5019660;28;20069;-81
2021/05/07 05:03:51;;;;;;;5.83;3.80;;;;;;;2.94;95.44;99827.66;5017901;28;20045;-80
2021/05/07 05:06:18;;;;;;;3.90;3.53;;;;;;;2.99;95.08;99828.50;5017928;28;20044;-80
2021/05/07 05:08:44;;;;;;;5.23;2.90;;;;;;;3.03;95.58;99831.13;5017916;28;20095;-80
2021/05/07 05:11:10;;;;;;;4.40;3.47;;;;;;;3.04;96.16;99832.00;5035942;28;20095;-81
2021/05/07 05:13:36;;;;;;;6.73;3.70;;;;;;;3.20;93.66;99840.63;5035432;28;20448;-81
2021/05/07 05:16:02;;;;;;;4.07;3.40;;;;;;;3.33;92.01;99853.63;5020055;28;20045;-80
2021/05/07 05:18:30;;;;;;;5.03;3.13;;;;;;;3.37;91.17;99850.13;5036157;28;20063;-79
2021/05/07 05:20:59;;;;;;;3.80;3.33;;;;;;;3.29;92.35;99859.75;5051070;28;20045;-81
2021/05/07 05:23:26;;;;;;;3.27;2.97;;;;;;;3.30;93.72;99855.38;5045657;28;20947;-81
2021/05/07 05:25:53;;;;;;;4.93;3.20;;;;;;;3.33;94.45;99865.81;5018199;28;20048;-80
2021/05/07 05:28:19;;;;;;;3.37;2.90;;;;;;;3.37;94.77;99867.53;5001939;28;20041;-81
2021/05/07 05:30:45;;;;;;;2.87;2.63;;;;;;;3.43;94.95;99874.47;5006354;28;20697;-80
2021/05/07 05:33:11;;;;;;;3.50;2.97;;;;;;;3.48;94.76;99896.22;5052598;28;20037;-80
2021/05/07 05:35:39;;;;;;;4.53;3.10;;;;;;;3.53;94.87;99899.66;5049334;28;20041;-81
2021/05/07 05:38:05;;;;;;;5.63;3.80;;;;;;;3.76;92.12;99907.41;5002759;28;20044;-80
2021/05/07 05:40:31;;;;;;;3.77;3.20;;;;;;;3.67;89.04;99910.91;5017925;28;20037;-80
2021/05/07 05:42:58;;;;;;;6.13;3.17;;;;;;;3.77;88.99;99909.13;5034563;28;20049;-80
2021/05/07 05:45:25;;;;;;;6.17;2.90;;;;;;;3.89;86.23;99911.69;5032681;28;20078;-79
2021/05/07 05:48:08;;;;;;;6.87;3.27;;;;;;;3.93;87.57;99916.00;5016921;28;20052;-80
2021/05/07 05:50:35;;;;;;;4.73;2.70;;;;;;;4.00;87.51;99920.34;5042037;28;20137;-82
2021/05/07 05:53:01;;;;;;;3.87;2.77;;;;;;;4.04;86.98;99923.81;5038129;28;20049;-81
2021/05/07 05:55:27;;;;;;;5.00;3.10;;;;;;;4.12;86.22;99932.44;5033890;28;20505;-80
2021/05/07 05:57:53;;;;;;;3.50;2.30;;;;;;;4.09;86.18;99932.47;5011093;28;20118;-80
2021/05/07 06:00:21;;;;;;;4.57;2.83;;;;;;;4.31;82.98;99934.09;5034609;28;20107;-79
2021/05/07 06:02:47;;;;;;;4.83;2.07;;;;;;;4.23;83.92;99936.75;5027787;28;20055;-80
2021/05/07 06:05:14;;;;;;;4.13;2.20;;;;;;;4.14;83.24;99933.34;5019288;28;20044;-80
2021/05/07 06:07:41;;;;;;;4.57;2.73;;;;;;;4.13;84.24;99940.31;5013124;28;20476;-82
2021/05/07 06:10:10;;;;;;;4.70;3.77;;;;;;;4.11;84.39;99943.78;5019851;28;20033;-82
2021/05/07 06:12:37;;;;;;;4.33;3.07;;;;;;;4.14;84.44;99944.66;5003213;28;20044;-80
2021/05/07 06:15:04;;;;;;;6.17;3.00;;;;;;;4.15;84.43;99945.53;5006242;28;20041;-82
2021/05/07 06:17:31;;;;;;;3.83;3.43;;;;;;;4.19;84.45;99939.38;5035041;28;20343;-81
2021/05/07 06:19:59;;;;;;;4.30;2.90;;;;;;;4.28;83.93;99946.31;5018071;28;20124;-81
2021/05/07 06:22:25;;;;;;;4.17;2.80;;;;;;;4.30;84.58;99941.97;5018700;28;20103;-81
2021/05/07 06:24:51;;;;;;;3.33;2.30;;;;;;;4.30;84.41;99939.34;5036498;28;20041;-80
2021/05/07 06:27:17;;;;;;;4.40;2.50;;;;;;;4.35;85.15;99938.41;5014635;28;20056;-82
2021/05/07 06:29:43;;;;;;;6.50;2.50;;;;;;;4.37;84.61;99943.63;5021053;28;20040;-82
2021/05/07 06:32:09;;;;;;;3.97;2.40;;;;;;;4.47;84.63;99946.19;4998518;28;20417;-82
2021/05/07 06:34:39;;;;;;;3.77;2.63;;;;;;;4.55;84.83;99940.03;5034525;28;20048;-80
2021/05/07 06:37:05;;;;;;;4.03;2.63;;;;;;;4.53;84.43;99950.47;5000641;28;20053;-81
2021/05/07 06:39:34;;;;;;;3.30;1.97;;;;;;;4.57;85.25;99952.22;5016813;28;20041;-82
2021/05/07 06:42:01;;;;;;;5.03;2.33;;;;;;;4.49;85.23;99957.50;5033643;28;20049;-82
2021/05/07 06:44:28;;;;;;;4.10;2.03;;;;;;;4.60;86.89;99969.63;5012535;28;20048;-81
2021/05/07 06:46:54;;;;;;;5.37;2.67;;;;;;;4.66;86.72;99964.34;5015515;28;20099;-83
2021/05/07 06:49:23;;;;;;;4.30;2.40;;;;;;;4.63;86.56;99980.09;5013354;28;20045;-83
2021/05/07 06:51:50;;;;;;;3.00;1.90;;;;;;;4.67;88.38;99976.56;5037833;28;20053;-81
2021/05/07 06:54:17;;;;;;;4.17;2.23;;;;;;;4.62;88.99;99987.03;5020267;28;20049;-81
2021/05/07 06:56:44;;;;;;;8.90;2.83;;;;;;;4.59;89.52;99983.59;5001460;28;20579;-82
2021/05/07 06:59:10;;;;;;;3.93;2.40;;;;;;;4.67;91.31;99985.28;4998450;28;20037;-82
2021/05/07 07:01:41;;;;;;;5.57;2.80;;;;;;;4.65;92.11;99989.66;5018708;28;20041;-83
2021/05/07 07:04:07;;;;;;;8.90;2.67;;;;;;;4.63;93.70;99991.41;5017120;28;20043;-83
2021/05/07 07:06:34;;;;;;;5.70;2.93;;;;;;;4.59;94.74;99994.06;5043367;28;20068;-83
2021/05/07 07:09:00;;;;;;;8.67;2.90;;;;;;;4.66;95.65;99999.25;5016613;28;20045;-83
2021/05/07 07:11:43;;;;;;;5.37;2.50;;;;;;;4.59;94.51;99994.91;5002405;28;20185;-86
2021/05/07 07:14:11;;;;;;;6.50;2.90;;;;;;;4.72;96.46;99998.34;5003482;28;20049;-83
2021/05/07 07:16:37;;;;;;;7.10;2.97;;;;;;;4.59;95.03;99999.28;5001074;28;20110;-85
2021/05/07 07:19:04;;;;;;;9.10;3.57;;;;;;;4.58;97.54;100000.16;5000528;28;20135;-83
2021/05/07 07:21:33;;;;;;;4.30;2.80;;;;;;;4.46;97.42;99999.38;5012855;28;20046;-84
2021/05/07 07:23:59;;;;;;;5.43;2.67;;;;;;;4.23;98.77;99996.88;4997145;28;20073;-83
2021/05/07 07:26:25;;;;;;;8.17;3.20;;;;;;;4.35;100.00;100005.53;5017307;28;20048;-82
2021/05/07 07:28:53;;;;;;;6.93;2.90;;;;;;;4.41;97.70;100005.50;5017720;28;20091;-83
2021/05/07 07:31:21;;;;;;;6.17;2.93;;;;;;;4.30;99.32;100008.19;5018747;28;20651;-82
2021/05/07 07:33:48;;;;;;;7.67;3.47;;;;;;;4.36;100.00;100009.88;5013393;28;20050;-84
2021/05/07 07:36:15;;;;;;;4.57;3.20;;;;;;;4.40;100.00;100015.09;5032759;28;20063;-84
2021/05/07 07:38:41;;;;;;;5.90;2.60;;;;;;;4.41;100.00;100010.75;5000331;28;20072;-82
2021/05/07 07:41:07;;;;;;;6.97;2.90;;;;;;;4.51;100.00;100018.50;5003840;28;20387;-85
2021/05/07 07:43:34;;;;;;;29.87;4.97;;;;;;;4.53;100.00;100021.97;5049452;28;20041;-85
2021/05/07 07:46:00;;;;;;;6.40;2.57;;;;;;;4.65;100.00;100018.44;5030201;28;20041;-82
2021/05/07 07:48:27;;;;;;;7.37;3.00;;;;;;;4.87;100.00;100026.97;5018384;28;20033;-84
2021/05/07 07:50:54;;;;;;;7.43;3.03;;;;;;;4.92;100.00;100019.97;4998526;28;20056;-83
2021/05/07 07:53:21;;;;;;;6.67;3.20;;;;;;;4.68;99.01;100033.22;5012830;28;20095;-84
2021/05/07 07:55:48;;;;;;;6.90;3.27;;;;;;;4.63;100.00;100032.41;5018488;28;20052;-83
2021/05/07 07:58:14;;;;;;;6.73;2.70;;;;;;;4.88;99.83;100033.13;5027261;28;20048;-82
2021/05/07 08:00:41;;;;;;;4.43;2.63;;;;;;;4.82;100.00;100026.16;5009635;28;20084;-82
2021/05/07 08:03:07;;;;;;;5.43;3.57;;;;;;;4.87;99.89;100032.22;5018326;28;20052;-82
2021/05/07 08:05:36;;;;;;;4.77;2.80;;;;;;;4.98;99.97;100042.63;5010452;28;20131;-83
2021/05/07 08:08:05;;;;;;;6.47;3.27;;;;;;;5.05;100.00;100042.56;5019935;28;20103;-84
2021/05/07 08:10:32;;;;;;;5.63;2.60;;;;;;;4.96;97.38;100037.41;5018896;28;20037;-82
2021/05/07 08:12:58;;;;;;;5.47;2.77;;;;;;;4.91;97.88;100043.56;5034643;28;20040;-83
2021/05/07 08:15:26;;;;;;;5.63;3.00;;;;;;;4.75;95.22;100043.66;5016824;28;20042;-82
2021/05/07 08:17:54;;;;;;;5.30;2.97;;;;;;;4.96;98.60;100046.97;5019522;28;20049;-84
2021/05/07 08:20:21;;;;;;;5.00;2.50;;;;;;;4.90;97.75;100058.38;5036294;28;20036;-84
2021/05/07 08:22:49;;;;;;;7.33;3.80;;;;;;;4.89;99.43;100051.41;5009095;28;20048;-83
2021/05/07 08:25:16;;;;;;;54.53;32.00;;;;;;;4.94;100.00;100056.59;5005846;28;20131;-85
2021/05/07 08:27:43;;;;;;;7.07;4.00;;;;;;;4.91;99.77;100067.09;5005177;28;20048;-84
2021/05/07 08:30:11;;;;;;;6.60;3.13;;;;;;;4.86;100.00;100072.34;5005443;28;20049;-82
2021/05/07 08:32:37;;;;;;;9.70;4.90;;;;;;;4.88;100.00;100070.63;5000711;28;20506;-84
2021/05/07 08:35:04;;;;;;;4.37;2.93;;;;;;;4.94;100.00;100072.31;4999840;28;20042;-82
2021/05/07 08:37:31;;;;;;;12.13;6.13;;;;;;;5.05;100.00;100073.13;5016540;28;20052;-82
2021/05/07 08:39:57;;;;;;;8.43;3.30;;;;;;;4.83;99.68;100080.25;5029270;28;20128;-83
2021/05/07 08:42:24;;;;;;;4.20;3.23;;;;;;;4.91;100.00;100080.19;5001962;28;20041;-83
2021/05/07 08:44:53;;;;;;;6.33;3.07;;;;;;;5.05;100.00;100086.22;5003607;28;20606;-82
2021/05/07 08:47:21;;;;;;;6.67;3.43;;;;;;;4.79;98.65;100092.50;5034894;28;20075;-82
2021/05/07 08:49:49;;;;;;;4.43;2.37;;;;;;;4.84;100.00;100091.56;5019366;28;20490;-81
2021/05/07 08:52:17;;;;;;;6.33;2.50;;;;;;;4.62;100.00;100098.66;5018069;28;20049;-81
2021/05/07 08:54:45;;;;;;;4.77;2.40;;;;;;;4.92;100.00;100111.59;5018999;28;20087;-83
2021/05/07 08:57:12;;;;;;;7.20;4.07;;;;;;;5.02;100.00;100104.53;4997768;28;20556;-80
2021/05/07 08:59:38;;;;;;;5.87;4.73;;;;;;;4.97;100.00;100114.19;4998745;28;20037;-80
2021/05/07 09:02:05;;;;;;;5.40;2.50;;;;;;;4.86;99.61;100113.38;5015796;28;20508;-81
2021/05/07 09:04:31;;;;;;;5.07;1.97;;;;;;;4.81;100.00;100116.03;5002040;28;20058;-82
2021/05/07 09:06:57;;;;;;;3.93;2.60;;;;;;;4.57;99.86;100126.63;5001788;28;20045;-81
2021/05/07 09:09:29;;;;;;;4.27;2.10;;;;;;;4.69;100.00;100132.66;5015896;28;20504;-81
2021/05/07 09:12:03;;;;;;;4.53;2.30;;;;;;;4.76;100.00;100130.88;5002713;28;20469;-84
2021/05/07 09:14:31;;;;;;;5.10;2.10;;;;;;;4.58;100.00;100138.81;5018113;28;20045;-82
2021/05/07 09:17:19;;;;;;;3.90;2.10;;;;;;;4.60;100.00;100142.28;4998795;28;20694;-81
2021/05/07 09:19:46;;;;;;;5.57;2.20;;;;;;;4.75;100.00;100140.47;4998665;28;20052;-82
2021/05/07 09:22:25;;;;;;;6.63;2.37;;;;;;;4.84;100.00;100139.56;5037192;28;20496;-83
2021/05/07 09:25:11;;;;;;;4.93;1.93;;;;;;;4.83;100.00;100145.66;5014808;28;20139;-82
2021/05/07 09:27:40;;;;;;;4.63;2.07;;;;;;;4.87;100.00;100147.38;5075922;23;20064;-82
2021/05/07 09:30:29;;;;;;;3.30;2.10;;;;;;;4.85;100.00;100151.75;4975451;28;20038;-82
2021/05/07 09:32:55;;;;;;;5.77;1.90;;;;;;;4.90;100.00;100154.38;4977336;28;20095;-82
2021/05/07 09:35:27;;;;;;;3.47;1.60;;;;;;;4.80;100.00;100161.41;4974982;28;20047;-82
2021/05/07 09:38:04;;;;;;;3.17;1.87;;;;;;;4.78;100.00;100163.13;5017759;28;20052;-81
2021/05/07 09:40:32;;;;;;;2.70;1.70;;;;;;;4.91;100.00;100174.44;5030876;28;20037;-83
2021/05/07 09:43:05;;;;;;;3.77;2.00;;;;;;;4.89;99.84;100178.81;5029373;28;20513;-82
2021/05/07 09:45:33;;;;;;;2.65;1.55;;;;;;;4.89;96.86;100176.19;5032012;28;20085;-82
2021/05/07 09:47:59;;;;;;;3.33;2.10;;;;;;;4.97;98.85;100182.25;5027720;28;20056;-82
2021/05/07 09:50:37;;;;;;;3.50;1.73;;;;;;;5.03;99.77;100190.06;5012561;28;20038;-82
2021/05/07 09:53:14;;;;;;;2.83;1.93;;;;;;;5.02;97.60;100190.94;5010071;28;20048;-82
2021/05/07 09:55:42;;;;;;;3.37;2.30;;;;;;;5.21;99.12;100189.06;5014276;28;20510;-82
2021/05/07 09:58:08;;;;;;;2.80;2.00;;;;;;;5.25;97.78;100185.56;5032596;28;20041;-82
2021/05/07 10:00:35;;;;;;;5.57;2.10;;;;;;;5.18;97.37;100189.97;5025286;28;20441;-82
2021/05/07 10:03:01;;;;;;;5.03;1.90;;;;;;;5.25;98.91;100193.44;5011885;28;20414;-81
2021/05/07 10:05:28;;;;;;;3.17;1.87;;;;;;;5.57;99.56;100177.47;5013060;28;20052;-82
2021/05/07 10:07:55;;;;;;;2.83;1.77;;;;;;;5.67;98.43;100186.13;5030949;28;20045;-82
2021/05/07 10:10:26;;;;;;;4.23;2.00;;;;;;;5.83;98.30;100191.25;4997063;28;20056;-82
2021/05/07 10:12:55;;;;;;;3.20;1.63;;;;;;;5.98;97.55;100187.66;4998685;28;20409;-82
2021/05/07 10:15:36;;;;;;;3.43;2.07;;;;;;;6.23;98.70;100193.53;5015037;28;20041;-82
2021/05/07 10:18:08;;;;;;;3.90;1.70;;;;;;;6.39;97.70;100196.81;5014486;28;20044;-82
2021/05/07 10:20:36;;;;;;;3.40;1.80;;;;;;;6.71;95.69;100204.34;5012743;28;20651;-82
2021/05/07 10:23:14;;;;;;;2.87;1.43;;;;;;;6.42;88.15;100212.56;4998820;28;20045;-82
2021/05/07 10:25:52;;;;;;;2.53;1.60;;;;;;;6.56;89.35;100210.66;4997915;28;20049;-82
2021/05/07 10:28:19;;;;;;;3.10;2.00;;;;;;;6.68;92.47;100213.13;5010601;28;20072;-83
2021/05/07 10:30:45;;;;;;;2.30;1.60;;;;;;;6.89;91.36;100213.75;5029454;28;20048;-83
2021/05/07 10:33:19;;;;;;;2.40;1.57;;;;;;;6.99;90.02;100221.50;5004943;28;20398;-82
2021/05/07 10:35:52;;;;;;;2.13;1.90;;;;;;;7.10;91.46;100223.97;4978614;28;20049;-83
2021/05/07 10:38:19;;;;;;;2.90;2.00;;;;;;;7.18;91.91;100227.38;5011407;28;20132;-82
2021/05/07 10:40:46;;;;;;;3.87;2.60;;;;;;;7.41;91.13;100231.44;5012965;28;20506;-83
2021/05/07 10:43:13;;;;;;;3.23;1.87;;;;;;;7.45;90.24;100217.38;5038439;28;20041;-83
2021/05/07 10:45:46;;;;;;;4.10;1.50;;;;;;;7.19;84.61;100231.75;5008920;28;20048;-82
2021/05/07 10:48:17;;;;;;;2.30;1.60;;;;;;;7.59;88.43;100236.44;5013163;28;20049;-83
2021/05/07 10:50:44;;;;;;;4.33;1.70;;;;;;;7.79;87.76;100234.34;5012641;28;20048;-83
2021/05/07 10:53:11;;;;;;;3.13;1.60;;;;;;;7.82;84.78;100242.22;4995102;28;20056;-83
2021/05/07 10:55:37;;;;;;;5.10;1.80;;;;;;;7.81;86.05;100240.44;5014156;28;20071;-81
2021/05/07 10:58:05;;;;;;;1.67;1.30;;;;;;;7.80;85.04;100240.47;5029875;28;20920;-83
2021/05/07 11:00:36;;;;;;;2.57;1.73;;;;;;;7.30;87.81;100245.59;5000589;28;20033;-83
2021/05/07 11:03:04;;;;;;;3.77;1.73;;;;;;;7.17;87.96;100246.66;5020930;28;20042;-83
2021/05/07 11:05:45;;;;;;;3.53;1.57;;;;;;;7.49;86.32;100245.34;5007031;28;20033;-85
2021/05/07 11:08:11;;;;;;;4.17;2.53;;;;;;;7.61;90.18;100245.16;5030606;28;20053;-85
2021/05/07 11:10:38;;;;;;;3.70;2.07;;;;;;;7.85;89.25;100247.41;5014989;28;20041;-84
2021/05/07 11:13:06;;;;;;;4.17;1.83;;;;;;;8.09;87.83;100242.66;5014495;28;20136;-83
2021/05/07 11:15:32;;;;;;;3.60;2.10;;;;;;;8.42;85.34;100244.72;5030149;28;20063;-83
2021/05/07 11:18:06;;;;;;;5.07;1.85;;;;;;;8.55;84.17;100249.75;5029721;28;20128;-83
2021/05/07 11:20:37;;;;;;;2.22;1.40;;;;;;;8.70;79.21;100252.09;5005280;28;20064;-82
2021/05/07 11:23:13;;;;;;;3.90;1.63;;;;;;;8.79;79.53;100262.44;5013172;28;20051;-82
2021/05/07 11:25:40;;;;;;;4.30;1.80;;;;;;;8.88;82.14;100257.00;5013261;28;20029;-82
2021/05/07 11:28:18;;;;;;;3.58;1.73;;;;;;;8.97;78.38;100261.22;5014536;28;20140;-83
2021/05/07 11:30:55;;;;;;;3.13;1.70;;;;;;;8.97;76.00;100251.53;5035374;28;20033;-82
2021/05/07 11:33:26;;;;;;;2.53;1.70;;;;;;;9.09;80.57;100253.06;5016307;28;20045;-83
2021/05/07 11:36:09;;;;;;;4.20;1.90;;;;;;;9.39;78.72;100246.25;4998413;28;20049;-83
2021/05/07 11:38:36;;;;;;;5.80;2.15;;;;;;;9.51;70.45;100245.13;5015701;28;20049;-83
2021/05/07 11:41:03;;;;;;;5.05;1.60;;;;;;;9.53;68.53;100238.91;5032525;28;20045;-83
2021/05/07 11:43:30;;;;;;;3.08;1.38;;;;;;;9.65;73.31;100248.28;5007440;28;20049;-83